sensor_id;sensor_type;location;lat;lon;timestamp;pressure;altitude;pressure_sealevel;temperature;humidity
51243;BME280;37812;47.556;18.718;2022-09-12T00:00:00;99635.81;;;13.68;100.00
51243;BME280;37812;47.556;18.718;2022-09-12T00:02:26;99634.03;;;13.65;100.00
51243;BME280;37812;47.556;18.718;2022-09-12T00:04:52;99634.81;;;13.62;100.00
51243;BME280;37812;47.556;18.718;2022-09-12T00:07:18;99632.88;;;13.52;100.00
51243;BME280;37812;47.556;18.718;2022-09-12T00:09:44;99624.22;;;13.53;100.00
51243;BME280;37812;47.556;18.718;2022-09-12T00:12:10;99625.81;;;13.48;100.00
51243;BME280;37812;47.556;18.718;2022-09-12T00:14:36;99622.16;;;13.40;100.00
51243;BME280;37812;47.556;18.718;2022-09-12T00:17:02;99627.47;;;13.43;100.00
51243;BME280;37812;47.556;18.718;2022-09-12T00:19:28;99620.56;;;13.45;100.00
51243;BME280;37812;47.556;18.718;2022-09-12T00:21:55;99624.94;;;13.48;100.00
51243;BME280;37812;47.556;18.718;2022-09-12T00:24:21;99612.91;;;13.51;100.00
51243;BME280;37812;47.556;18.718;2022-09-12T00:26:48;99623.31;;;13.51;100.00
51243;BME280;37812;47.556;18.718;2022-09-12T00:29:16;99625.91;;;13.51;100.00
51243;BME280;37812;47.556;18.718;2022-09-12T00:31:42;99619.69;;;13.45;100.00
51243;BME280;37812;47.556;18.718;2022-09-12T00:34:08;99624.97;;;13.49;100.00
51243;BME280;37812;47.556;18.718;2022-09-12T00:36:34;99618.00;;;13.47;100.00
51243;BME280;37812;47.556;18.718;2022-09-12T00:39:02;99624.06;;;13.47;100.00
51243;BME280;37812;47.556;18.718;2022-09-12T00:41:37;99624.19;;;13.52;100.00
51243;BME280;37812;47.556;18.718;2022-09-12T00:47:04;99629.41;;;13.53;100.00
51243;BME280;37812;47.556;18.718;2022-09-12T00:49:38;99632.88;;;13.52;100.00
51243;BME280;37812;47.556;18.718;2022-09-12T00:52:10;99628.37;;;13.47;100.00
51243;BME280;37812;47.556;18.718;2022-09-12T00:57:07;99624.00;;;13.44;100.00
51243;BME280;37812;47.556;18.718;2022-09-12T00:59:39;99617.84;;;13.41;100.00
51243;BME280;37812;47.556;18.718;2022-09-12T01:02:06;99623.81;;;13.35;100.00
51243;BME280;37812;47.556;18.718;2022-09-12T01:04:34;99620.25;;;13.33;100.00
51243;BME280;37812;47.556;18.718;2022-09-12T01:07:03;99628.75;;;13.26;100.00
51243;BME280;37812;47.556;18.718;2022-09-12T01:09:31;99637.53;;;13.31;100.00
51243;BME280;37812;47.556;18.718;2022-09-12T01:11:57;99633.88;;;13.23;100.00
51243;BME280;37812;47.556;18.718;2022-09-12T01:14:24;99632.84;;;13.18;100.00
51243;BME280;37812;47.556;18.718;2022-09-12T01:16:50;99629.28;;;13.13;100.00
51243;BME280;37812;47.556;18.718;2022-09-12T01:27:47;99624.84;;;13.08;100.00
51243;BME280;37812;47.556;18.718;2022-09-12T01:30:46;99624.78;;;13.05;100.00
51243;BME280;37812;47.556;18.718;2022-09-12T01:33:34;99621.19;;;13.00;100.00
51243;BME280;37812;47.556;18.718;2022-09-12T01:36:16;99626.38;;;13.00;100.00
51243;BME280;37812;47.556;18.718;2022-09-12T01:38:49;99626.31;;;12.97;100.00
51243;BME280;37812;47.556;18.718;2022-09-12T01:43:58;99637.44;;;12.93;100.00
51243;BME280;37812;47.556;18.718;2022-09-12T01:47:21;99641.72;;;12.91;100.00
51243;BME280;37812;47.556;18.718;2022-09-12T01:50:06;99638.34;;;12.95;100.00
51243;BME280;37812;47.556;18.718;2022-09-12T01:52:40;99635.69;;;12.92;100.00
51243;BME280;37812;47.556;18.718;2022-09-12T01:55:15;99633.13;;;12.94;100.00
51243;BME280;37812;47.556;18.718;2022-09-12T01:57:51;99638.13;;;12.86;100.00
51243;BME280;37812;47.556;18.718;2022-09-12T02:00:19;99640.56;;;12.80;100.00
51243;BME280;37812;47.556;18.718;2022-09-12T02:07:51;99634.16;;;12.66;100.00
51243;BME280;37812;47.556;18.718;2022-09-12T02:10:23;99637.72;;;12.71;100.00
51243;BME280;37812;47.556;18.718;2022-09-12T02:13:04;99646.50;;;12.76;100.00
51243;BME280;37812;47.556;18.718;2022-09-12T02:15:39;99639.53;;;12.73;100.00
51243;BME280;37812;47.556;18.718;2022-09-12T02:18:05;99640.25;;;12.68;100.00
51243;BME280;37812;47.556;18.718;2022-09-12T02:20:38;99639.28;;;12.64;100.00
51243;BME280;37812;47.556;18.718;2022-09-12T02:23:09;99637.53;;;12.65;100.00
51243;BME280;37812;47.556;18.718;2022-09-12T02:25:42;99629.75;;;12.65;100.00
51243;BME280;37812;47.556;18.718;2022-09-12T02:28:37;99626.47;;;12.70;100.00
51243;BME280;37812;47.556;18.718;2022-09-12T02:31:30;99623.75;;;12.66;100.00
51243;BME280;37812;47.556;18.718;2022-09-12T02:37:06;99631.34;;;12.58;100.00
51243;BME280;37812;47.556;18.718;2022-09-12T02:39:35;99633.88;;;12.57;100.00
51243;BME280;37812;47.556;18.718;2022-09-12T02:42:01;99639.84;;;12.52;100.00
51243;BME280;37812;47.556;18.718;2022-09-12T02:44:29;99638.91;;;12.50;100.00
51243;BME280;37812;47.556;18.718;2022-09-12T02:47:02;99637.94;;;12.47;100.00
51243;BME280;37812;47.556;18.718;2022-09-12T02:49:29;99630.13;;;12.45;100.00
51243;BME280;37812;47.556;18.718;2022-09-12T02:51:55;99631.81;;;12.43;100.00
51243;BME280;37812;47.556;18.718;2022-09-12T02:54:22;99642.81;;;12.35;100.00
51243;BME280;37812;47.556;18.718;2022-09-12T02:56:48;99642.69;;;12.32;100.00
51243;BME280;37812;47.556;18.718;2022-09-12T02:59:18;99636.56;;;12.28;100.00
51243;BME280;37812;47.556;18.718;2022-09-12T03:02:03;99640.59;;;12.18;100.00
51243;BME280;37812;47.556;18.718;2022-09-12T03:10:02;99621.50;;;11.86;100.00
51243;BME280;37812;47.556;18.718;2022-09-12T03:12:37;99621.50;;;11.86;100.00
51243;BME280;37812;47.556;18.718;2022-09-12T03:15:24;99626.63;;;11.83;100.00
51243;BME280;37812;47.556;18.718;2022-09-12T03:18:01;99626.50;;;11.80;100.00
51243;BME280;37812;47.556;18.718;2022-09-12T03:23:41;99631.50;;;11.74;100.00
51243;BME280;37812;47.556;18.718;2022-09-12T03:26:16;99638.25;;;11.69;100.00
51243;BME280;37812;47.556;18.718;2022-09-12T03:28:45;99635.87;;;11.77;100.00
51243;BME280;37812;47.556;18.718;2022-09-12T03:31:14;99640.19;;;11.76;100.00
51243;BME280;37812;47.556;18.718;2022-09-12T03:33:41;99635.97;;;11.80;100.00
51243;BME280;37812;47.556;18.718;2022-09-12T03:36:25;99633.31;;;11.78;100.00
51243;BME280;37812;47.556;18.718;2022-09-12T03:38:51;99630.13;;;11.85;100.00
51243;BME280;37812;47.556;18.718;2022-09-12T03:41:18;99636.28;;;11.89;100.00
51243;BME280;37812;47.556;18.718;2022-09-12T03:43:44;99631.38;;;11.71;100.00
51243;BME280;37812;47.556;18.718;2022-09-12T03:46:10;99637.13;;;11.61;100.00
51243;BME280;37812;47.556;18.718;2022-09-12T03:48:36;99638.50;;;11.50;100.00
51243;BME280;37812;47.556;18.718;2022-09-12T03:51:03;99632.03;;;11.35;100.00
51243;BME280;37812;47.556;18.718;2022-09-12T03:53:30;99642.06;;;11.26;100.00
51243;BME280;37812;47.556;18.718;2022-09-12T03:55:56;99652.25;;;11.20;100.00
51243;BME280;37812;47.556;18.718;2022-09-12T03:58:23;99638.97;;;11.36;100.00
51243;BME280;37812;47.556;18.718;2022-09-12T04:00:49;99640.59;;;11.34;100.00
51243;BME280;37812;47.556;18.718;2022-09-12T04:03:16;99649.03;;;11.27;100.00
51243;BME280;37812;47.556;18.718;2022-09-12T04:05:43;99638.66;;;11.27;100.00
51243;BME280;37812;47.556;18.718;2022-09-12T04:08:09;99641.97;;;11.23;100.00
51243;BME280;37812;47.556;18.718;2022-09-12T04:10:35;99637.00;;;11.29;100.00
51243;BME280;37812;47.556;18.718;2022-09-12T04:13:01;99638.59;;;11.53;100.00
51243;BME280;37812;47.556;18.718;2022-09-12T04:15:27;99638.50;;;11.78;100.00
51243;BME280;37812;47.556;18.718;2022-09-12T04:17:53;99635.31;;;11.85;100.00
51243;BME280;37812;47.556;18.718;2022-09-12T04:20:19;99635.37;;;11.88;100.00
51243;BME280;37812;47.556;18.718;2022-09-12T04:22:45;99636.34;;;11.90;100.00
51243;BME280;37812;47.556;18.718;2022-09-12T04:25:11;99635.69;;;11.98;100.00
51243;BME280;37812;47.556;18.718;2022-09-12T04:27:38;99647.81;;;11.99;100.00
51243;BME280;37812;47.556;18.718;2022-09-12T04:30:05;99641.13;;;12.07;100.00
51243;BME280;37812;47.556;18.718;2022-09-12T04:32:32;99640.03;;;11.99;100.00
51243;BME280;37812;47.556;18.718;2022-09-12T04:34:57;99630.66;;;12.04;100.00
51243;BME280;37812;47.556;18.718;2022-09-12T04:37:23;99637.63;;;12.05;100.00
51243;BME280;37812;47.556;18.718;2022-09-12T04:39:49;99629.19;;;12.12;100.00
51243;BME280;37812;47.556;18.718;2022-09-12T04:42:16;99638.88;;;12.19;100.00
51243;BME280;37812;47.556;18.718;2022-09-12T04:44:42;99634.44;;;12.15;100.00
51243;BME280;37812;47.556;18.718;2022-09-12T04:47:08;99647.69;;;12.24;100.00
51243;BME280;37812;47.556;18.718;2022-09-12T04:49:34;99649.34;;;12.22;100.00
51243;BME280;37812;47.556;18.718;2022-09-12T04:52:00;99654.44;;;12.19;100.00
51243;BME280;37812;47.556;18.718;2022-09-12T04:54:26;99655.47;;;12.24;100.00
51243;BME280;37812;47.556;18.718;2022-09-12T04:56:52;99653.84;;;12.28;100.00
51243;BME280;37812;47.556;18.718;2022-09-12T04:59:20;99643.03;;;12.42;100.00
51243;BME280;37812;47.556;18.718;2022-09-12T05:01:46;99649.38;;;12.53;100.00
51243;BME280;37812;47.556;18.718;2022-09-12T05:04:13;99644.34;;;12.60;100.00
51243;BME280;37812;47.556;18.718;2022-09-12T05:06:40;99646.19;;;12.64;100.00
51243;BME280;37812;47.556;18.718;2022-09-12T05:09:09;99649.72;;;12.66;100.00
51243;BME280;37812;47.556;18.718;2022-09-12T05:11:38;99654.34;;;12.77;100.00
51243;BME280;37812;47.556;18.718;2022-09-12T05:14:04;99659.00;;;12.89;100.00
51243;BME280;37812;47.556;18.718;2022-09-12T05:16:30;99655.84;;;13.02;100.00
51243;BME280;37812;47.556;18.718;2022-09-12T05:18:57;99655.25;;;13.13;100.00
51243;BME280;37812;47.556;18.718;2022-09-12T05:21:25;99661.62;;;13.24;100.00
51243;BME280;37812;47.556;18.718;2022-09-12T05:23:52;99665.37;;;13.35;100.00
51243;BME280;37812;47.556;18.718;2022-09-12T05:26:18;99670.78;;;13.44;100.00
51243;BME280;37812;47.556;18.718;2022-09-12T05:28:46;99671.00;;;13.53;100.00
51243;BME280;37812;47.556;18.718;2022-09-12T05:31:18;99671.38;;;13.69;100.00
51243;BME280;37812;47.556;18.718;2022-09-12T05:33:47;99677.47;;;13.71;100.00
51243;BME280;37812;47.556;18.718;2022-09-12T05:36:16;99681.09;;;13.77;100.00
51243;BME280;37812;47.556;18.718;2022-09-12T05:38:43;99682.19;;;13.87;100.00
51243;BME280;37812;47.556;18.718;2022-09-12T05:41:17;99682.31;;;13.93;100.00
51243;BME280;37812;47.556;18.718;2022-09-12T05:43:45;99690.44;;;14.07;100.00
51243;BME280;37812;47.556;18.718;2022-09-12T05:46:14;99691.59;;;14.19;100.00
51243;BME280;37812;47.556;18.718;2022-09-12T05:48:42;99695.16;;;14.25;100.00
51243;BME280;37812;47.556;18.718;2022-09-12T05:51:13;99696.16;;;14.31;100.00
51243;BME280;37812;47.556;18.718;2022-09-12T05:53:49;99692.09;;;14.44;100.00
51243;BME280;37812;47.556;18.718;2022-09-12T05:56:18;99694.00;;;14.51;100.00
51243;BME280;37812;47.556;18.718;2022-09-12T05:58:46;99685.69;;;14.70;100.00
51243;BME280;37812;47.556;18.718;2022-09-12T06:01:17;99686.78;;;14.80;100.00
51243;BME280;37812;47.556;18.718;2022-09-12T06:03:48;99689.28;;;14.76;100.00
51243;BME280;37812;47.556;18.718;2022-09-12T06:06:17;99686.81;;;14.83;100.00
51243;BME280;37812;47.556;18.718;2022-09-12T06:08:46;99696.41;;;14.86;100.00
51243;BME280;37812;47.556;18.718;2022-09-12T06:11:18;99697.63;;;15.03;100.00
51243;BME280;37812;47.556;18.718;2022-09-12T06:13:44;99702.06;;;15.10;100.00
51243;BME280;37812;47.556;18.718;2022-09-12T06:16:16;99699.56;;;15.16;98.13
51243;BME280;37812;47.556;18.718;2022-09-12T06:18:51;99690.22;;;15.27;98.65
51243;BME280;37812;47.556;18.718;2022-09-12T06:21:19;99695.69;;;15.43;96.92
51243;BME280;37812;47.556;18.718;2022-09-12T06:23:45;99694.19;;;15.57;96.09
51243;BME280;37812;47.556;18.718;2022-09-12T06:26:14;99691.53;;;15.54;96.01
51243;BME280;37812;47.556;18.718;2022-09-12T06:28:42;99696.13;;;15.67;94.45
51243;BME280;37812;47.556;18.718;2022-09-12T06:31:11;99691.06;;;15.79;93.93
51243;BME280;37812;47.556;18.718;2022-09-12T06:33:42;99693.84;;;15.89;92.96
51243;BME280;37812;47.556;18.718;2022-09-12T06:36:12;99696.44;;;15.89;90.89
51243;BME280;37812;47.556;18.718;2022-09-12T06:38:39;99695.63;;;15.94;92.08
51243;BME280;37812;47.556;18.718;2022-09-12T06:41:07;99698.72;;;16.26;92.15
51243;BME280;37812;47.556;18.718;2022-09-12T06:43:34;99695.38;;;16.39;88.05
51243;BME280;37812;47.556;18.718;2022-09-12T06:46:01;99695.56;;;16.55;87.83
51243;BME280;37812;47.556;18.718;2022-09-12T06:48:27;99704.47;;;16.69;88.52
51243;BME280;37812;47.556;18.718;2022-09-12T06:50:59;99697.53;;;16.71;87.22
51243;BME280;37812;47.556;18.718;2022-09-12T06:53:26;99701.06;;;16.73;86.08
51243;BME280;37812;47.556;18.718;2022-09-12T06:55:57;99706.84;;;17.27;83.38
51243;BME280;37812;47.556;18.718;2022-09-12T06:58:24;99702.72;;;19.33;73.68
51243;BME280;37812;47.556;18.718;2022-09-12T07:00:51;99702.16;;;21.22;64.41
51243;BME280;37812;47.556;18.718;2022-09-12T07:03:17;99703.22;;;22.07;58.37
51243;BME280;37812;47.556;18.718;2022-09-12T07:05:44;99700.28;;;23.64;52.93
51243;BME280;37812;47.556;18.718;2022-09-12T07:08:10;99693.66;;;24.79;49.50
51243;BME280;37812;47.556;18.718;2022-09-12T07:10:36;99689.63;;;25.03;47.27
51243;BME280;37812;47.556;18.718;2022-09-12T07:13:02;99694.94;;;25.40;47.36
51243;BME280;37812;47.556;18.718;2022-09-12T07:15:28;99693.19;;;26.42;44.98
51243;BME280;37812;47.556;18.718;2022-09-12T07:17:54;99695.87;;;26.71;42.66
51243;BME280;37812;47.556;18.718;2022-09-12T07:20:20;99695.13;;;26.96;42.71
51243;BME280;37812;47.556;18.718;2022-09-12T07:22:47;99700.56;;;25.98;44.53
51243;BME280;37812;47.556;18.718;2022-09-12T07:25:13;99699.75;;;27.73;41.48
51243;BME280;37812;47.556;18.718;2022-09-12T07:27:39;99699.44;;;26.70;43.48
51243;BME280;37812;47.556;18.718;2022-09-12T07:30:05;99695.63;;;27.36;42.76
51243;BME280;37812;47.556;18.718;2022-09-12T07:32:32;99692.97;;;27.63;41.29
51243;BME280;37812;47.556;18.718;2022-09-12T07:34:58;99696.37;;;27.66;41.30
51243;BME280;37812;47.556;18.718;2022-09-12T07:37:24;99697.38;;;27.09;42.71
51243;BME280;37812;47.556;18.718;2022-09-12T07:39:50;99692.84;;;27.13;42.75
51243;BME280;37812;47.556;18.718;2022-09-12T07:42:17;99696.03;;;27.24;41.39
51243;BME280;37812;47.556;18.718;2022-09-12T07:44:43;99704.16;;;27.74;40.38
51243;BME280;37812;47.556;18.718;2022-09-12T07:47:09;99702.97;;;26.07;43.40
51243;BME280;37812;47.556;18.718;2022-09-12T07:49:35;99700.62;;;25.59;44.84
51243;BME280;37812;47.556;18.718;2022-09-12T07:52:01;99698.25;;;27.10;41.62
51243;BME280;37812;47.556;18.718;2022-09-12T07:54:27;99699.16;;;26.79;41.46
51243;BME280;37812;47.556;18.718;2022-09-12T07:56:53;99704.41;;;26.81;41.62
51243;BME280;37812;47.556;18.718;2022-09-12T07:59:19;99703.91;;;28.07;39.50
51243;BME280;37812;47.556;18.718;2022-09-12T08:01:45;99702.16;;;28.06;39.46
51243;BME280;37812;47.556;18.718;2022-09-12T08:04:10;99708.44;;;27.78;39.90
51243;BME280;37812;47.556;18.718;2022-09-12T08:06:37;99703.94;;;27.54;39.53
51243;BME280;37812;47.556;18.718;2022-09-12T08:09:03;99706.34;;;27.61;39.94
51243;BME280;37812;47.556;18.718;2022-09-12T08:11:30;99714.22;;;26.79;40.88
51243;BME280;37812;47.556;18.718;2022-09-12T08:13:56;99706.50;;;26.40;42.68
51243;BME280;37812;47.556;18.718;2022-09-12T08:16:25;99702.66;;;25.12;44.61
51243;BME280;37812;47.556;18.718;2022-09-12T08:18:52;99708.16;;;24.17;46.01
51243;BME280;37812;47.556;18.718;2022-09-12T08:21:21;99709.81;;;23.73;47.37
51243;BME280;37812;47.556;18.718;2022-09-12T08:23:54;99713.44;;;25.42;43.90
51243;BME280;37812;47.556;18.718;2022-09-12T08:26:21;99706.66;;;25.66;42.98
51243;BME280;37812;47.556;18.718;2022-09-12T08:28:48;99711.16;;;26.93;41.03
51243;BME280;37812;47.556;18.718;2022-09-12T08:31:16;99697.44;;;26.78;40.35
51243;BME280;37812;47.556;18.718;2022-09-12T08:33:43;99718.22;;;26.31;41.81
51243;BME280;37812;47.556;18.718;2022-09-12T08:36:11;99712.66;;;26.72;41.83
51243;BME280;37812;47.556;18.718;2022-09-12T08:38:40;99707.94;;;27.67;39.50
51243;BME280;37812;47.556;18.718;2022-09-12T08:44:16;99692.44;;;27.25;40.50
51243;BME280;37812;47.556;18.718;2022-09-12T08:49:38;99700.16;;;25.06;45.05
51243;BME280;37812;47.556;18.718;2022-09-12T08:52:11;99704.34;;;26.54;42.54
51243;BME280;37812;47.556;18.718;2022-09-12T08:54:39;99685.19;;;27.02;39.43
51243;BME280;37812;47.556;18.718;2022-09-12T08:57:08;99693.38;;;28.53;37.08
51243;BME280;37812;47.556;18.718;2022-09-12T08:59:41;99691.84;;;27.43;36.49
51243;BME280;37812;47.556;18.718;2022-09-12T09:02:35;99699.88;;;25.56;39.88
51243;BME280;37812;47.556;18.718;2022-09-12T09:10:25;99686.53;;;26.58;39.75
51243;BME280;37812;47.556;18.718;2022-09-12T09:15:46;99678.12;;;28.57;36.50
51243;BME280;37812;47.556;18.718;2022-09-12T09:18:18;99680.28;;;28.71;35.42
51243;BME280;37812;47.556;18.718;2022-09-12T09:20:50;99679.25;;;28.26;36.32
51243;BME280;37812;47.556;18.718;2022-09-12T09:25:52;99678.53;;;28.70;35.99
51243;BME280;37812;47.556;18.718;2022-09-12T09:28:25;99682.75;;;29.21;34.50
51243;BME280;37812;47.556;18.718;2022-09-12T09:30:56;99684.91;;;29.77;34.08
51243;BME280;37812;47.556;18.718;2022-09-12T09:33:25;99674.47;;;27.86;36.98
51243;BME280;37812;47.556;18.718;2022-09-12T09:43:49;99679.19;;;26.96;40.32
51243;BME280;37812;47.556;18.718;2022-09-12T09:46:15;99680.28;;;27.18;40.15
51243;BME280;37812;47.556;18.718;2022-09-12T09:48:47;99678.09;;;26.73;39.26
51243;BME280;37812;47.556;18.718;2022-09-12T09:51:16;99687.91;;;25.38;43.17
51243;BME280;37812;47.556;18.718;2022-09-12T09:53:55;99684.38;;;24.60;44.85
51243;BME280;37812;47.556;18.718;2022-09-12T09:56:40;99672.22;;;23.55;48.64
51243;BME280;37812;47.556;18.718;2022-09-12T09:59:30;99679.63;;;22.72;49.35
51243;BME280;37812;47.556;18.718;2022-09-12T10:04:33;99679.59;;;22.01;54.20
51243;BME280;37812;47.556;18.718;2022-09-12T10:07:02;99675.41;;;21.80;54.87
51243;BME280;37812;47.556;18.718;2022-09-12T10:09:31;99680.75;;;21.73;57.20
51243;BME280;37812;47.556;18.718;2022-09-12T10:12:00;99670.50;;;21.41;58.09
51243;BME280;37812;47.556;18.718;2022-09-12T10:14:56;99679.59;;;20.88;60.09
51243;BME280;37812;47.556;18.718;2022-09-12T10:17:30;99675.06;;;21.11;61.54
51243;BME280;37812;47.556;18.718;2022-09-12T10:19:57;99677.84;;;20.90;61.17
51243;BME280;37812;47.556;18.718;2022-09-12T10:22:26;99671.91;;;20.49;61.06
51243;BME280;37812;47.556;18.718;2022-09-12T10:24:57;99672.78;;;20.50;62.55
51243;BME280;37812;47.556;18.718;2022-09-12T10:27:28;99672.84;;;20.22;62.55
51243;BME280;37812;47.556;18.718;2022-09-12T10:32:30;99678.16;;;20.10;62.83
51243;BME280;37812;47.556;18.718;2022-09-12T10:35:03;99679.06;;;19.85;64.55
51243;BME280;37812;47.556;18.718;2022-09-12T10:37:37;99683.41;;;20.10;63.95
51243;BME280;37812;47.556;18.718;2022-09-12T10:40:21;99678.22;;;19.80;63.66
51243;BME280;37812;47.556;18.718;2022-09-12T10:42:56;99683.47;;;19.89;65.12
51243;BME280;37812;47.556;18.718;2022-09-12T10:45:27;99679.94;;;19.84;63.41
51243;BME280;37812;47.556;18.718;2022-09-12T10:47:58;99686.97;;;19.94;64.71
51243;BME280;37812;47.556;18.718;2022-09-12T10:50:29;99681.69;;;19.85;63.76
51243;BME280;37812;47.556;18.718;2022-09-12T10:53:21;99674.69;;;19.96;63.30
51243;BME280;37812;47.556;18.718;2022-09-12T10:56:13;99682.53;;;20.00;64.01
51243;BME280;37812;47.556;18.718;2022-09-12T11:01:42;99672.63;;;21.92;58.55
51243;BME280;37812;47.556;18.718;2022-09-12T11:23:59;99672.97;;;19.51;67.98
51243;BME280;37812;47.556;18.718;2022-09-12T11:34:46;99684.28;;;18.96;68.74
51243;BME280;37812;47.556;18.718;2022-09-12T11:42:58;99685.16;;;18.89;68.06
51243;BME280;37812;47.556;18.718;2022-09-12T11:45:36;99679.94;;;19.07;68.23
51243;BME280;37812;47.556;18.718;2022-09-12T11:48:07;99678.22;;;19.19;67.20
51243;BME280;37812;47.556;18.718;2022-09-12T11:50:36;99677.31;;;19.32;67.84
51243;BME280;37812;47.556;18.718;2022-09-12T11:53:10;99678.22;;;19.43;65.79
51243;BME280;37812;47.556;18.718;2022-09-12T11:56:08;99675.63;;;19.58;66.33
51243;BME280;37812;47.556;18.718;2022-09-12T11:58:33;99667.72;;;19.70;64.65
51243;BME280;37812;47.556;18.718;2022-09-12T12:01:18;99674.69;;;19.90;65.88
51243;BME280;37812;47.556;18.718;2022-09-12T12:03:46;99674.69;;;20.02;65.50
51243;BME280;37812;47.556;18.718;2022-09-12T12:08:45;99668.63;;;19.71;63.60
51243;BME280;37812;47.556;18.718;2022-09-12T12:11:14;99671.22;;;19.66;65.96
51243;BME280;37812;47.556;18.718;2022-09-12T12:13:51;99670.34;;;19.67;65.79
51243;BME280;37812;47.556;18.718;2022-09-12T12:16:33;99668.56;;;20.02;65.27
51243;BME280;37812;47.556;18.718;2022-09-12T12:19:02;99658.94;;;19.78;65.29
51243;BME280;37812;47.556;18.718;2022-09-12T12:34:34;99634.06;;;20.79;63.46
51243;BME280;37812;47.556;18.718;2022-09-12T12:39:56;99639.59;;;22.42;57.30
51243;BME280;37812;47.556;18.718;2022-09-12T12:48:10;99617.28;;;23.25;54.49
51243;BME280;37812;47.556;18.718;2022-09-12T12:50:39;99617.19;;;23.31;52.40
51243;BME280;37812;47.556;18.718;2022-09-12T12:53:25;99622.84;;;23.61;52.15
51243;BME280;37812;47.556;18.718;2022-09-12T12:55:54;99618.81;;;23.38;51.72
51243;BME280;37812;47.556;18.718;2022-09-12T13:01:25;99610.34;;;22.59;49.83
51243;BME280;37812;47.556;18.718;2022-09-12T13:03:58;99613.41;;;22.27;51.69
51243;BME280;37812;47.556;18.718;2022-09-12T13:09:51;99612.84;;;22.70;50.91
51243;BME280;37812;47.556;18.718;2022-09-12T13:11:59;99619.84;;;22.69;49.95
51243;BME280;37812;47.556;18.718;2022-09-12T13:17:03;99613.59;;;22.12;51.87
51243;BME280;37812;47.556;18.718;2022-09-12T13:19:32;99612.56;;;22.25;51.98
51243;BME280;37812;47.556;18.718;2022-09-12T13:22:07;99611.87;;;22.11;48.29
51243;BME280;37812;47.556;18.718;2022-09-12T13:24:44;99612.13;;;21.83;49.08
51243;BME280;37812;47.556;18.718;2022-09-12T13:27:28;99611.53;;;21.58;50.82
51243;BME280;37812;47.556;18.718;2022-09-12T13:30:08;99613.56;;;21.29;50.84
51243;BME280;37812;47.556;18.718;2022-09-12T13:32:34;99604.78;;;21.27;50.72
51243;BME280;37812;47.556;18.718;2022-09-12T13:38:12;99601.25;;;21.34;51.47
51243;BME280;37812;47.556;18.718;2022-09-12T13:43:36;99601.22;;;22.20;50.47
51243;BME280;37812;47.556;18.718;2022-09-12T13:46:05;99590.94;;;21.96;49.04
51243;BME280;37812;47.556;18.718;2022-09-12T13:48:32;99594.59;;;21.82;48.91
51243;BME280;37812;47.556;18.718;2022-09-12T13:51:02;99598.38;;;21.57;49.51
51243;BME280;37812;47.556;18.718;2022-09-12T13:53:43;99591.47;;;21.44;49.57
51243;BME280;37812;47.556;18.718;2022-09-12T13:56:17;99595.97;;;21.31;50.74
51243;BME280;37812;47.556;18.718;2022-09-12T13:58:56;99595.16;;;21.21;51.67
51243;BME280;37812;47.556;18.718;2022-09-12T14:01:34;99589.31;;;20.84;50.68
51243;BME280;37812;47.556;18.718;2022-09-12T14:04:19;99596.31;;;20.88;51.18
51243;BME280;37812;47.556;18.718;2022-09-12T14:07:18;99586.88;;;20.58;52.34
51243;BME280;37812;47.556;18.718;2022-09-12T14:09:52;99594.03;;;20.22;54.53
51243;BME280;37812;47.556;18.718;2022-09-12T14:12:24;99594.88;;;20.29;54.04
51243;BME280;37812;47.556;18.718;2022-09-12T14:14:51;99586.06;;;20.50;53.90
51243;BME280;37812;47.556;18.718;2022-09-12T14:17:31;99591.44;;;20.16;54.71
51243;BME280;37812;47.556;18.718;2022-09-12T14:19:59;99598.50;;;20.04;54.20
51243;BME280;37812;47.556;18.718;2022-09-12T14:22:28;99599.38;;;20.04;53.79
51243;BME280;37812;47.556;18.718;2022-09-12T14:24:55;99592.25;;;20.34;52.78
51243;BME280;37812;47.556;18.718;2022-09-12T14:27:26;99589.53;;;20.53;53.09
51243;BME280;37812;47.556;18.718;2022-09-12T14:30:03;99589.41;;;20.73;51.86
51243;BME280;37812;47.556;18.718;2022-09-12T14:32:32;99588.59;;;20.65;49.69
51243;BME280;37812;47.556;18.718;2022-09-12T14:37:37;99586.94;;;20.46;50.79
51243;BME280;37812;47.556;18.718;2022-09-12T14:40:14;99580.81;;;20.45;50.25
51243;BME280;37812;47.556;18.718;2022-09-12T14:42:41;99589.59;;;20.37;51.08
51243;BME280;37812;47.556;18.718;2022-09-12T14:45:28;99592.22;;;20.31;50.75
51243;BME280;37812;47.556;18.718;2022-09-12T14:47:56;99586.97;;;20.31;51.66
51243;BME280;37812;47.556;18.718;2022-09-12T14:50:25;99578.25;;;20.28;50.30
51243;BME280;37812;47.556;18.718;2022-09-12T14:53:03;99587.03;;;20.24;50.75
51243;BME280;37812;47.556;18.718;2022-09-12T14:55:33;99584.38;;;20.27;50.72
51243;BME280;37812;47.556;18.718;2022-09-12T15:03:34;99574.69;;;20.36;51.51
51243;BME280;37812;47.556;18.718;2022-09-12T15:06:02;99580.84;;;20.30;51.56
51243;BME280;37812;47.556;18.718;2022-09-12T15:08:29;99573.84;;;20.29;52.05
51243;BME280;37812;47.556;18.718;2022-09-12T15:10:57;99574.72;;;20.30;52.13
51243;BME280;37812;47.556;18.718;2022-09-12T15:13:25;99581.78;;;20.20;52.09
51243;BME280;37812;47.556;18.718;2022-09-12T15:15:56;99581.81;;;20.15;51.62
51243;BME280;37812;47.556;18.718;2022-09-12T15:18:24;99584.44;;;20.15;51.43
51243;BME280;37812;47.556;18.718;2022-09-12T15:20:56;99587.13;;;20.03;52.11
51243;BME280;37812;47.556;18.718;2022-09-12T15:23:28;99581.87;;;20.03;52.02
51243;BME280;37812;47.556;18.718;2022-09-12T15:25:54;99584.50;;;19.98;52.33
51243;BME280;37812;47.556;18.718;2022-09-12T15:28:22;99573.13;;;19.92;53.46